Time;durP1;ratioP1;P1;durP2;ratioP2;P2;SDS_P1;SDS_P2;PMS_P1;PMS_P2;Temp;Humidity;BMP_temperature;BMP_pressure;BME280_temperature;BME280_humidity;BME280_pressure;Samples;Min_cycle;Max_cycle;Signal;HPM_P1;HPM_P2
2021/12/31 10:02:33;;;;;;;3.97;2.58;;;12.80;99.90;;;;;;5103953;27;20533;-73
2021/12/31 10:05:01;;;;;;;3.42;2.60;;;13.60;99.90;;;;;;5109891;28;20191;-71
2021/12/31 10:07:30;;;;;;;2.78;2.30;;;13.80;99.90;;;;;;5109702;28;20241;-72
2021/12/31 10:10:11;;;;;;;4.72;2.70;;;13.60;99.90;;;;;;5110236;28;20196;-73
2021/12/31 10:12:48;;;;;;;4.07;2.92;;;14.00;99.90;;;;;;5110503;28;20191;-72
2021/12/31 10:15:17;;;;;;;2.85;2.50;;;14.00;99.90;;;;;;5110263;28;20196;-73
2021/12/31 10:17:45;;;;;;;3.25;2.63;;;14.20;99.90;;;;;;5110075;28;20646;-73
2021/12/31 10:20:13;;;;;;;3.17;2.33;;;14.40;99.90;;;;;;5109784;28;20203;-73
2021/12/31 10:22:39;;;;;;;3.28;2.45;;;14.70;99.90;;;;;;5110269;28;20633;-73
2021/12/31 10:25:22;;;;;;;3.38;2.70;;;15.20;99.90;;;;;;5110006;28;20192;-73
2021/12/31 10:27:50;;;;;;;3.25;2.50;;;16.50;99.90;;;;;;5108993;28;20252;-73
2021/12/31 10:30:22;;;;;;;4.57;2.53;;;17.30;99.90;;;;;;5109768;28;20199;-73
2021/12/31 10:32:51;;;;;;;2.97;2.58;;;18.50;99.90;;;;;;5109977;28;20196;-72
2021/12/31 10:35:19;;;;;;;2.70;2.35;;;19.10;99.90;;;;;;5119396;28;20195;-73
2021/12/31 10:37:47;;;;;;;2.92;2.33;;;18.80;99.90;;;;;;5129542;27;20218;-72
2021/12/31 10:40:27;;;;;;;3.83;2.30;;;19.60;99.90;;;;;;5130245;27;20195;-72
2021/12/31 10:43:15;;;;;;;2.97;2.17;;;19.50;99.90;;;;;;5130217;27;20234;-72
2021/12/31 10:45:56;;;;;;;2.53;2.10;;;20.20;99.90;;;;;;5125492;27;20188;-71
2021/12/31 10:48:38;;;;;;;2.10;1.90;;;20.70;99.90;;;;;;5111306;28;20203;-72
2021/12/31 10:51:05;;;;;;;3.78;2.20;;;21.00;99.90;;;;;;5109652;28;20332;-72
2021/12/31 10:53:34;;;;;;;3.50;2.25;;;21.50;99.90;;;;;;5109522;28;20200;-72
2021/12/31 10:56:06;;;;;;;2.40;1.90;;;20.30;99.90;;;;;;5109509;28;20203;-73
2021/12/31 10:58:33;;;;;;;3.35;2.33;;;19.60;99.90;;;;;;5109811;28;20286;-73
2021/12/31 11:01:00;;;;;;;2.38;1.75;;;19.40;99.90;;;;;;5109008;28;20231;-73
2021/12/31 11:03:28;;;;;;;2.33;1.98;;;20.10;99.90;;;;;;5109155;28;20665;-72
2021/12/31 11:05:57;;;;;;;2.00;1.80;;;21.20;99.90;;;;;;5109216;28;20200;-73
2021/12/31 11:08:26;;;;;;;2.15;1.85;;;21.80;99.90;;;;;;5109397;28;20200;-73
2021/12/31 11:10:57;;;;;;;2.10;1.80;;;21.30;99.90;;;;;;5109443;28;20567;-73
2021/12/31 11:13:28;;;;;;;2.30;2.10;;;20.60;99.90;;;;;;5097751;28;20200;-73
2021/12/31 11:15:56;;;;;;;3.63;2.10;;;21.10;99.90;;;;;;5095496;28;20202;-71
2021/12/31 11:18:23;;;;;;;2.60;2.00;;;20.70;99.90;;;;;;5095473;28;20208;-72
2021/12/31 11:20:53;;;;;;;3.20;1.73;;;21.00;99.90;;;;;;5095387;28;20732;-73
2021/12/31 11:23:24;;;;;;;1.60;1.50;;;20.70;99.90;;;;;;5095824;28;20200;-73
2021/12/31 11:25:53;;;;;;;4.07;2.17;;;19.90;99.90;;;;;;5095390;28;20724;-73
2021/12/31 11:28:28;;;;;;;2.63;2.10;;;19.10;99.90;;;;;;5095390;28;20196;-72
2021/12/31 11:30:56;;;;;;;2.35;1.70;;;20.70;99.90;;;;;;5095389;28;20203;-72
2021/12/31 11:33:26;;;;;;;2.78;1.90;;;21.00;99.90;;;;;;5095019;28;20543;-73
2021/12/31 11:36:04;;;;;;;2.85;2.30;;;20.90;99.90;;;;;;5095257;28;20575;-73
2021/12/31 11:38:50;;;;;;;3.13;2.08;;;22.00;99.90;;;;;;5095158;28;20195;-73
2021/12/31 11:41:21;;;;;;;2.95;2.15;;;21.50;99.90;;;;;;5094948;28;20280;-73
2021/12/31 11:44:06;;;;;;;2.10;1.90;;;21.70;99.90;;;;;;5094944;28;20578;-72
2021/12/31 11:46:35;;;;;;;3.33;1.90;;;22.50;99.90;;;;;;5094946;28;20192;-74
2021/12/31 11:49:04;;;;;;;2.65;2.13;;;22.30;99.90;;;;;;5094964;28;20226;-73
2021/12/31 11:51:35;;;;;;;2.22;1.80;;;21.40;99.90;;;;;;5094891;28;20204;-74
2021/12/31 11:54:18;;;;;;;2.30;1.90;;;21.40;99.90;;;;;;5095071;28;20616;-74
2021/12/31 11:56:52;;;;;;;3.55;1.50;;;21.80;99.90;;;;;;5094685;28;20689;-74
2021/12/31 11:59:43;;;;;;;2.10;1.75;;;21.30;99.80;;;;;;5094809;28;20298;-74
2021/12/31 12:02:15;;;;;;;2.10;1.70;;;21.30;99.90;;;;;;5094295;28;20231;-73
2021/12/31 12:04:44;;;;;;;2.00;1.58;;;20.80;99.90;;;;;;5094835;28;20197;-74
2021/12/31 12:07:32;;;;;;;2.45;1.70;;;21.30;99.90;;;;;;5094853;28;20199;-74
2021/12/31 12:10:22;;;;;;;3.65;1.65;;;21.70;99.90;;;;;;5094532;28;20231;-74
2021/12/31 12:12:52;;;;;;;1.95;1.75;;;23.10;96.50;;;;;;5094868;28;20290;-73
2021/12/31 12:15:33;;;;;;;2.20;1.55;;;22.10;97.00;;;;;;5094286;28;20200;-74
2021/12/31 12:18:02;;;;;;;1.80;1.70;;;22.50;96.50;;;;;;5094399;28;20675;-74
2021/12/31 12:20:39;;;;;;;2.15;1.60;;;23.00;95.50;;;;;;5094370;28;20196;-74
2021/12/31 12:23:16;;;;;;;2.90;1.80;;;22.90;94.00;;;;;;5094131;28;20666;-74
2021/12/31 12:25:43;;;;;;;3.00;1.73;;;23.60;95.20;;;;;;5093752;28;20253;-74
2021/12/31 12:28:12;;;;;;;2.83;1.77;;;24.20;92.50;;;;;;5094228;28;20200;-74
2021/12/31 12:30:44;;;;;;;1.58;1.48;;;24.00;91.30;;;;;;5094139;28;20280;-74
2021/12/31 12:33:17;;;;;;;1.83;1.63;;;24.70;87.70;;;;;;5094075;28;20206;-74
2021/12/31 12:35:46;;;;;;;1.95;1.50;;;23.80;88.00;;;;;;5094255;28;20200;-74
2021/12/31 12:38:18;;;;;;;2.15;1.70;;;23.30;89.40;;;;;;5094190;28;20295;-73
2021/12/31 12:40:48;;;;;;;2.03;1.40;;;22.20;90.30;;;;;;5093827;28;20712;-73
2021/12/31 12:43:17;;;;;;;2.13;1.60;;;22.10;91.70;;;;;;5094084;28;20287;-73
2021/12/31 12:45:46;;;;;;;3.13;1.55;;;21.90;91.50;;;;;;5093625;28;20200;-73
2021/12/31 12:48:12;;;;;;;1.70;1.60;;;21.70;92.10;;;;;;5093792;28;20678;-73
2021/12/31 12:50:48;;;;;;;2.85;1.80;;;22.50;91.80;;;;;;5093808;28;20677;-73
2021/12/31 12:53:21;;;;;;;2.03;1.73;;;22.50;91.40;;;;;;5093793;28;20241;-73
2021/12/31 12:55:48;;;;;;;1.60;1.45;;;22.30;91.40;;;;;;5093729;28;20196;-74
2021/12/31 12:58:22;;;;;;;2.00;1.70;;;21.90;91.40;;;;;;5093479;28;20193;-73
2021/12/31 13:00:55;;;;;;;2.80;1.95;;;21.30;93.00;;;;;;5087504;28;20220;-72
2021/12/31 13:03:23;;;;;;;2.97;1.75;;;20.90;93.40;;;;;;5090369;28;20192;-73
2021/12/31 13:05:50;;;;;;;2.17;1.50;;;20.80;94.70;;;;;;5092981;28;20196;-74
2021/12/31 13:08:17;;;;;;;2.72;1.40;;;19.70;97.50;;;;;;5093315;28;20214;-74
2021/12/31 13:10:48;;;;;;;2.25;1.70;;;18.60;99.90;;;;;;5093216;28;20286;-73
2021/12/31 13:13:16;;;;;;;3.65;2.00;;;18.00;99.90;;;;;;5093398;28;20210;-73
2021/12/31 13:15:43;;;;;;;1.90;1.60;;;18.50;99.90;;;;;;5093098;28;20698;-71
2021/12/31 13:18:10;;;;;;;2.63;1.70;;;18.90;99.90;;;;;;5093365;28;20237;-73
2021/12/31 13:20:37;;;;;;;1.70;1.60;;;19.40;99.90;;;;;;5092823;28;20659;-71
2021/12/31 13:23:06;;;;;;;1.98;1.70;;;19.70;99.90;;;;;;5084054;28;20649;-73
2021/12/31 13:25:38;;;;;;;2.17;1.55;;;18.50;99.90;;;;;;5077833;28;20204;-74
2021/12/31 13:28:15;;;;;;;2.00;1.50;;;17.60;99.90;;;;;;5077217;28;20215;-73
2021/12/31 13:30:52;;;;;;;3.83;1.70;;;16.90;99.90;;;;;;5077164;28;20808;-72
2021/12/31 13:33:28;;;;;;;2.75;2.00;;;16.10;99.90;;;;;;5076115;28;21825;-72
2021/12/31 13:36:22;;;;;;;3.57;2.03;;;15.40;99.90;;;;;;5086362;28;20257;-74
2021/12/31 13:39:10;;;;;;;2.30;2.10;;;15.20;99.90;;;;;;5092162;28;20287;-72
2021/12/31 13:41:45;;;;;;;3.40;2.40;;;14.70;99.90;;;;;;5084952;28;20632;-74
2021/12/31 13:44:15;;;;;;;2.63;1.97;;;14.40;99.90;;;;;;5091430;28;20655;-73
2021/12/31 13:46:46;;;;;;;3.40;2.30;;;14.40;99.90;;;;;;5092658;28;20674;-72
2021/12/31 13:49:18;;;;;;;3.30;2.00;;;14.60;99.90;;;;;;5092681;28;20200;-72
2021/12/31 13:51:45;;;;;;;3.50;2.07;;;14.70;99.90;;;;;;5092936;28;20204;-74
2021/12/31 13:54:16;;;;;;;4.23;2.17;;;14.80;99.90;;;;;;5092814;28;20192;-73
2021/12/31 13:56:45;;;;;;;4.57;2.57;;;14.90;99.90;;;;;;5092632;28;20289;-73
2021/12/31 13:59:23;;;;;;;3.50;2.20;;;15.10;99.90;;;;;;5092686;28;20196;-73
2021/12/31 14:02:04;;;;;;;2.30;2.10;;;15.00;99.90;;;;;;5092568;28;20239;-72
2021/12/31 14:04:31;;;;;;;3.60;2.50;;;15.00;99.90;;;;;;5092653;28;20207;-72
2021/12/31 14:07:14;;;;;;;5.20;4.57;;;14.90;99.90;;;;;;5092382;28;20717;-71
2021/12/31 14:09:41;;;;;;;5.93;5.20;;;14.60;99.90;;;;;;5093016;28;20204;-71
2021/12/31 14:12:09;;;;;;;7.17;6.53;;;14.30;99.90;;;;;;5093002;28;20203;-72
2021/12/31 14:14:40;;;;;;;3.70;2.50;;;14.10;99.90;;;;;;5090681;28;20208;-72
2021/12/31 14:17:07;;;;;;;2.33;1.83;;;14.20;99.90;;;;;;5090823;28;20590;-72
2021/12/31 14:19:33;;;;;;;2.10;1.90;;;13.90;99.90;;;;;;5088714;28;20533;-72
2021/12/31 14:22:01;;;;;;;2.40;2.20;;;13.80;99.90;;;;;;5089364;28;21759;-71
2021/12/31 14:24:27;;;;;;;2.93;2.67;;;13.80;99.90;;;;;;5091701;28;20202;-72
2021/12/31 14:26:55;;;;;;;3.00;2.30;;;13.70;99.90;;;;;;5088350;28;20200;-72
2021/12/31 14:29:22;;;;;;;5.73;4.63;;;13.60;99.90;;;;;;5092190;28;20193;-72
2021/12/31 14:31:50;;;;;;;5.63;5.00;;;13.50;99.90;;;;;;5090358;28;20196;-71
2021/12/31 14:34:17;;;;;;;9.90;8.57;;;13.40;99.90;;;;;;5092070;28;20540;-73
2021/12/31 14:37:04;;;;;;;4.27;3.50;;;13.30;99.90;;;;;;5091639;28;20455;-72
2021/12/31 14:39:34;;;;;;;3.67;2.80;;;13.20;99.90;;;;;;5092506;28;20196;-72
2021/12/31 14:42:01;;;;;;;3.83;3.23;;;13.00;99.90;;;;;;5092604;28;20219;-72
2021/12/31 14:44:28;;;;;;;5.53;4.07;;;13.10;99.90;;;;;;5092309;28;20196;-71
2021/12/31 14:46:56;;;;;;;4.77;4.00;;;13.20;99.90;;;;;;5092437;28;20219;-72
2021/12/31 14:49:24;;;;;;;13.30;11.87;;;13.10;99.90;;;;;;5096341;28;20204;-73
2021/12/31 14:51:52;;;;;;;6.27;5.67;;;13.00;99.90;;;;;;5096136;28;20598;-72
2021/12/31 14:54:20;;;;;;;4.17;3.40;;;12.90;99.90;;;;;;5096242;28;20250;-72
2021/12/31 14:56:47;;;;;;;3.13;2.83;;;13.60;99.90;;;;;;5095759;28;20200;-73
2021/12/31 14:59:15;;;;;;;4.10;2.90;;;15.90;99.90;;;;;;5096154;28;20429;-74
2021/12/31 15:01:43;;;;;;;4.47;2.70;;;17.10;99.90;;;;;;5089723;28;20286;-73
2021/12/31 15:04:11;;;;;;;2.93;2.40;;;18.00;99.90;;;;;;5095318;28;20251;-72
2021/12/31 15:06:38;;;;;;;4.47;2.53;;;18.30;99.90;;;;;;5095774;28;20196;-72
2021/12/31 15:09:06;;;;;;;5.90;4.68;;;17.80;99.90;;;;;;5096882;28;20199;-72
2021/12/31 15:11:32;;;;;;;5.25;4.30;;;17.80;99.90;;;;;;5094412;28;20204;-71
2021/12/31 15:13:59;;;;;;;5.18;4.15;;;18.20;99.90;;;;;;5095990;28;20205;-72
2021/12/31 15:16:26;;;;;;;4.25;3.83;;;16.80;99.90;;;;;;5095624;28;20222;-72
2021/12/31 15:18:53;;;;;;;12.43;11.18;;;15.20;99.90;;;;;;5093141;28;20242;-72
2021/12/31 15:21:22;;;;;;;3.37;2.77;;;14.20;99.90;;;;;;5095030;28;20269;-72
2021/12/31 15:23:50;;;;;;;6.93;3.70;;;13.60;99.90;;;;;;5094939;28;20281;-72
2021/12/31 15:26:18;;;;;;;5.90;4.23;;;13.10;99.90;;;;;;5095000;28;20200;-71
2021/12/31 15:28:45;;;;;;;11.70;9.13;;;12.70;99.90;;;;;;5090742;28;20241;-71
2021/12/31 15:31:12;;;;;;;13.57;11.17;;;12.40;99.90;;;;;;5091134;28;20196;-71
2021/12/31 15:33:39;;;;;;;12.23;11.03;;;12.20;99.90;;;;;;5092373;28;20250;-73
2021/12/31 15:36:08;;;;;;;3.93;3.53;;;12.00;99.90;;;;;;5092214;28;20202;-73
2021/12/31 15:38:36;;;;;;;4.87;4.00;;;12.00;99.90;;;;;;5094286;28;20258;-74
2021/12/31 15:41:03;;;;;;;4.93;3.87;;;11.90;99.90;;;;;;5092413;28;20204;-72
2021/12/31 15:43:30;;;;;;;5.97;5.03;;;11.70;99.90;;;;;;5094551;28;20231;-73
2021/12/31 15:45:57;;;;;;;39.80;35.47;;;11.60;99.90;;;;;;5094823;28;20197;-73
2021/12/31 15:48:23;;;;;;;7.03;5.93;;;11.50;99.90;;;;;;5094860;28;20245;-73
2021/12/31 15:50:50;;;;;;;13.90;9.83;;;11.40;99.90;;;;;;5094652;28;20201;-72
2021/12/31 15:53:17;;;;;;;9.63;8.73;;;11.30;99.90;;;;;;5094412;28;20200;-72
2021/12/31 15:55:45;;;;;;;5.90;3.60;;;11.20;99.90;;;;;;5094861;28;20254;-72
2021/12/31 15:58:12;;;;;;;6.83;6.23;;;11.20;99.90;;;;;;5091847;28;20211;-71
2021/12/31 16:00:38;;;;;;;11.70;10.50;;;11.10;99.90;;;;;;5094057;28;20227;-75
2021/12/31 16:03:05;;;;;;;22.47;18.00;;;10.80;99.90;;;;;;5092561;28;20281;-73
2021/12/31 16:05:31;;;;;;;14.43;11.57;;;10.70;99.90;;;;;;5093566;28;20192;-73
2021/12/31 16:07:58;;;;;;;9.40;7.10;;;10.50;99.90;;;;;;5091770;28;20224;-73
2021/12/31 16:10:25;;;;;;;32.87;27.27;;;10.40;99.90;;;;;;5093977;28;20250;-72
2021/12/31 16:12:53;;;;;;;9.93;7.83;;;10.40;99.90;;;;;;5094340;28;20196;-72
2021/12/31 16:15:22;;;;;;;4.93;3.87;;;10.30;99.90;;;;;;5093856;28;20717;-72
2021/12/31 16:17:49;;;;;;;9.03;8.20;;;10.30;99.90;;;;;;5093928;28;20211;-71
2021/12/31 16:20:17;;;;;;;77.70;69.37;;;10.20;99.90;;;;;;5087797;28;20192;-71
2021/12/31 16:22:45;;;;;;;59.73;53.30;;;10.00;99.90;;;;;;5093966;28;20228;-71
2021/12/31 16:25:12;;;;;;;145.57;129.53;;;9.90;99.90;;;;;;5093861;28;20237;-71
2021/12/31 16:27:38;;;;;;;25.13;22.50;;;9.90;99.90;;;;;;5093516;28;20648;-72
2021/12/31 16:30:08;;;;;;;6.00;5.40;;;10.00;99.90;;;;;;5094186;28;20225;-71
2021/12/31 16:32:34;;;;;;;14.67;13.17;;;10.00;99.90;;;;;;5094150;28;20211;-71
2021/12/31 16:35:03;;;;;;;10.13;7.47;;;9.80;99.90;;;;;;5093250;28;20196;-72
2021/12/31 16:37:30;;;;;;;8.53;7.10;;;9.80;99.90;;;;;;5093900;28;20242;-72
2021/12/31 16:39:56;;;;;;;8.67;6.97;;;9.70;99.90;;;;;;5093568;28;20652;-72
2021/12/31 16:42:23;;;;;;;6.53;4.50;;;9.60;99.90;;;;;;5093095;28;20217;-71
2021/12/31 16:44:50;;;;;;;6.63;5.60;;;9.70;99.90;;;;;;5093446;28;20199;-71
2021/12/31 16:47:18;;;;;;;32.27;26.40;;;9.70;99.90;;;;;;5093370;28;20192;-72
2021/12/31 16:49:45;;;;;;;22.87;16.60;;;9.60;99.90;;;;;;5093302;28;20532;-71
2021/12/31 16:52:12;;;;;;;126.20;100.90;;;9.60;99.90;;;;;;5093188;28;20197;-71
2021/12/31 16:54:38;;;;;;;39.40;30.37;;;9.50;99.90;;;;;;5093340;28;20196;-71
2021/12/31 16:57:08;;;;;;;171.53;139.20;;;9.50;99.90;;;;;;5093300;28;20197;-71
2021/12/31 16:59:35;;;;;;;120.47;95.37;;;9.30;99.90;;;;;;5092920;28;20189;-71
2021/12/31 17:02:02;;;;;;;30.87;24.27;;;9.20;99.90;;;;;;5093087;28;20220;-71
2021/12/31 17:04:30;;;;;;;9.90;8.17;;;9.30;99.90;;;;;;5093314;28;20231;-71
2021/12/31 17:06:57;;;;;;;13.27;10.77;;;9.50;99.90;;;;;;5093296;28;20189;-71
2021/12/31 17:09:23;;;;;;;34.90;26.73;;;9.70;99.90;;;;;;5093153;28;20193;-71
2021/12/31 17:11:50;;;;;;;72.63;52.57;;;9.70;99.90;;;;;;5092809;28;20199;-71
2021/12/31 17:14:18;;;;;;;28.83;21.00;;;9.50;99.90;;;;;;5093209;28;20196;-71
2021/12/31 17:16:46;;;;;;;13.27;9.70;;;9.50;99.90;;;;;;5093160;28;20624;-71
2021/12/31 17:19:12;;;;;;;13.43;10.30;;;9.40;99.90;;;;;;5093055;28;20188;-71
2021/12/31 17:21:40;;;;;;;14.03;11.47;;;9.50;99.90;;;;;;5093396;28;20189;-71
2021/12/31 17:24:07;;;;;;;7.07;5.53;;;9.50;99.90;;;;;;5092954;28;20216;-71
2021/12/31 17:26:34;;;;;;;8.47;5.67;;;9.70;99.90;;;;;;5093255;28;20238;-71
2021/12/31 17:29:01;;;;;;;5.30;3.67;;;9.80;99.90;;;;;;5092886;28;20246;-72
2021/12/31 17:31:28;;;;;;;80.20;44.10;;;9.90;99.90;;;;;;5093058;28;20196;-71
2021/12/31 17:33:54;;;;;;;5.87;4.47;;;9.90;99.90;;;;;;5092679;28;20659;-71
2021/12/31 17:36:21;;;;;;;7.03;6.20;;;10.00;99.90;;;;;;5092841;28;20611;-71
2021/12/31 17:38:49;;;;;;;6.43;5.20;;;10.10;99.90;;;;;;5093010;28;20188;-71
2021/12/31 17:41:16;;;;;;;5.60;4.70;;;10.10;99.90;;;;;;5092754;28;20205;-72
2021/12/31 17:43:42;;;;;;;7.93;6.80;;;10.00;99.90;;;;;;5092709;28;20548;-71
2021/12/31 17:46:10;;;;;;;7.10;6.07;;;10.00;99.90;;;;;;5092554;28;20725;-71
2021/12/31 17:48:38;;;;;;;5.20;4.70;;;10.00;99.90;;;;;;5092699;28;20245;-72
2021/12/31 17:51:05;;;;;;;6.80;6.00;;;10.10;99.90;;;;;;5092844;28;20188;-72
2021/12/31 17:53:32;;;;;;;5.30;4.70;;;10.20;99.90;;;;;;5092641;28;20231;-72
2021/12/31 17:56:00;;;;;;;6.17;4.87;;;10.40;99.90;;;;;;5092169;28;20602;-71
2021/12/31 17:58:27;;;;;;;7.60;6.23;;;10.50;99.90;;;;;;5092560;28;20574;-73
2021/12/31 18:00:54;;;;;;;10.40;9.30;;;10.60;99.90;;;;;;5092361;28;20726;-71
2021/12/31 18:03:21;;;;;;;7.23;6.53;;;10.60;99.90;;;;;;5092467;28;20220;-72
2021/12/31 18:05:48;;;;;;;4.80;4.10;;;10.70;99.90;;;;;;5092691;28;20189;-73
2021/12/31 18:08:15;;;;;;;48.13;32.57;;;10.60;99.90;;;;;;5076352;28;20189;-72
2021/12/31 18:10:42;;;;;;;5.93;4.87;;;10.50;99.90;;;;;;5092524;28;20193;-71
2021/12/31 18:13:10;;;;;;;5.60;4.97;;;10.60;99.90;;;;;;5092538;28;20663;-71
2021/12/31 18:15:36;;;;;;;5.90;4.73;;;10.60;99.90;;;;;;5092131;28;20529;-76
2021/12/31 18:18:06;;;;;;;5.33;4.20;;;10.60;99.90;;;;;;5092437;28;20652;-78
2021/12/31 18:20:33;;;;;;;6.53;5.23;;;10.70;99.90;;;;;;5092171;28;20196;-72
2021/12/31 18:22:59;;;;;;;5.40;4.60;;;10.60;99.90;;;;;;5094182;28;20208;-73
2021/12/31 18:25:26;;;;;;;5.40;4.80;;;10.60;99.90;;;;;;5096038;28;20235;-71
2021/12/31 18:27:53;;;;;;;5.40;4.50;;;10.60;99.90;;;;;;5096688;28;20275;-72
2021/12/31 18:30:21;;;;;;;5.20;4.43;;;10.60;99.90;;;;;;5096728;28;20196;-72
2021/12/31 18:32:48;;;;;;;5.77;4.70;;;10.60;99.90;;;;;;5097073;28;20188;-72
2021/12/31 18:35:14;;;;;;;6.97;4.40;;;10.60;99.90;;;;;;5096418;28;20197;-72
2021/12/31 18:37:41;;;;;;;6.23;4.63;;;10.50;99.90;;;;;;5096106;28;20265;-73
2021/12/31 18:40:09;;;;;;;5.00;4.50;;;10.50;99.90;;;;;;5096559;28;20196;-72
2021/12/31 18:42:35;;;;;;;9.53;6.47;;;10.50;99.90;;;;;;5097335;28;20200;-72
2021/12/31 18:45:03;;;;;;;6.10;5.30;;;10.50;99.90;;;;;;5097459;28;20213;-72
2021/12/31 18:47:38;;;;;;;5.43;4.90;;;10.60;99.90;;;;;;5096735;28;20652;-74
2021/12/31 18:50:16;;;;;;;5.30;4.80;;;10.50;99.90;;;;;;5096711;28;20192;-72
2021/12/31 18:52:43;;;;;;;7.77;5.40;;;10.60;99.90;;;;;;5096553;28;20185;-71
2021/12/31 18:55:10;;;;;;;5.70;5.10;;;10.50;99.90;;;;;;5096262;28;20192;-72
2021/12/31 18:57:36;;;;;;;7.23;5.43;;;10.50;99.90;;;;;;5095824;28;20713;-71
2021/12/31 19:00:05;;;;;;;7.57;6.80;;;10.40;99.90;;;;;;5095842;28;20560;-71
2021/12/31 19:02:33;;;;;;;8.57;6.70;;;10.30;99.90;;;;;;5095817;28;20220;-72
2021/12/31 19:04:59;;;;;;;7.73;6.97;;;10.30;99.90;;;;;;5095480;28;20261;-73
2021/12/31 19:07:26;;;;;;;7.83;6.67;;;10.20;99.90;;;;;;5092655;28;20193;-72
2021/12/31 19:09:53;;;;;;;8.73;7.63;;;10.10;99.90;;;;;;5093441;28;20970;-72
2021/12/31 19:12:20;;;;;;;7.13;6.43;;;10.10;99.90;;;;;;5093998;28;20626;-70
2021/12/31 19:14:46;;;;;;;8.60;7.60;;;10.10;99.90;;;;;;5094896;28;20650;-70
2021/12/31 19:17:13;;;;;;;10.73;7.30;;;10.00;99.90;;;;;;5095705;28;20655;-72
2021/12/31 19:19:41;;;;;;;9.67;6.97;;;10.00;99.90;;;;;;5095740;28;20184;-71
2021/12/31 19:22:08;;;;;;;7.60;6.80;;;10.00;99.90;;;;;;5095819;28;20188;-72
2021/12/31 19:24:35;;;;;;;9.00;7.23;;;9.90;99.90;;;;;;5095918;28;20556;-71
2021/12/31 19:27:02;;;;;;;8.47;7.10;;;9.90;99.90;;;;;;5095655;28;20199;-71
2021/12/31 19:29:29;;;;;;;10.37;7.13;;;9.90;99.90;;;;;;5095706;28;20192;-73
2021/12/31 19:31:55;;;;;;;8.57;7.60;;;9.80;99.90;;;;;;5095069;28;20196;-72
2021/12/31 19:34:22;;;;;;;9.10;7.83;;;9.80;99.90;;;;;;5095930;28;20192;-72
2021/12/31 19:36:50;;;;;;;9.40;8.13;;;9.90;99.90;;;;;;5095372;28;20199;-72
2021/12/31 19:39:17;;;;;;;13.10;8.53;;;9.70;99.90;;;;;;5087060;28;20192;-72
2021/12/31 19:41:43;;;;;;;9.73;8.63;;;9.80;99.90;;;;;;5095233;28;20192;-72
2021/12/31 19:44:10;;;;;;;10.97;8.37;;;9.70;99.90;;;;;;5094711;28;20717;-73
2021/12/31 19:46:37;;;;;;;15.77;11.63;;;9.70;99.90;;;;;;5095577;28;20578;-72
2021/12/31 19:49:03;;;;;;;11.40;9.10;;;9.70;99.90;;;;;;5094981;28;20192;-72
2021/12/31 19:51:30;;;;;;;8.00;7.17;;;9.70;99.90;;;;;;5095213;28;20297;-72
2021/12/31 19:53:58;;;;;;;25.90;17.60;;;9.70;99.90;;;;;;5095269;28;20196;-72
2021/12/31 19:56:26;;;;;;;16.63;12.57;;;9.70;99.90;;;;;;5094699;28;20191;-72
2021/12/31 19:58:53;;;;;;;8.27;7.47;;;9.60;99.90;;;;;;5095085;28;20199;-72
2021/12/31 20:01:19;;;;;;;8.47;7.67;;;9.70;99.90;;;;;;5095084;28;20757;-71
2021/12/31 20:03:46;;;;;;;8.63;7.13;;;9.70;99.90;;;;;;5095164;28;20261;-71
2021/12/31 20:06:13;;;;;;;9.10;7.47;;;9.70;99.90;;;;;;5095542;28;20189;-72
2021/12/31 20:08:39;;;;;;;10.17;7.77;;;9.70;99.90;;;;;;5095403;28;20242;-71
2021/12/31 20:11:07;;;;;;;10.03;9.00;;;9.70;99.90;;;;;;5095364;28;20275;-70
2021/12/31 20:13:34;;;;;;;10.40;9.30;;;9.60;99.90;;;;;;5095309;28;20245;-71
2021/12/31 20:16:01;;;;;;;8.17;7.27;;;9.60;99.90;;;;;;5095500;28;20193;-70
2021/12/31 20:18:27;;;;;;;9.53;8.57;;;9.60;99.90;;;;;;5095522;28;20222;-72
2021/12/31 20:20:55;;;;;;;11.03;7.80;;;9.60;99.90;;;;;;5094976;28;20192;-72
2021/12/31 20:23:22;;;;;;;9.23;8.30;;;9.50;99.90;;;;;;5095064;28;20188;-71
2021/12/31 20:25:48;;;;;;;11.40;7.70;;;9.60;99.90;;;;;;5094873;28;20701;-71
2021/12/31 20:28:16;;;;;;;12.00;9.50;;;9.50;99.90;;;;;;5094555;28;20184;-72
2021/12/31 20:30:43;;;;;;;9.33;7.93;;;9.50;99.90;;;;;;5095214;28;20246;-71
2021/12/31 20:33:09;;;;;;;13.00;11.60;;;9.50;99.90;;;;;;5095122;28;20201;-75
2021/12/31 20:35:36;;;;;;;16.77;14.10;;;9.40;99.90;;;;;;5096274;28;20621;-72
2021/12/31 20:38:03;;;;;;;11.17;9.10;;;9.50;99.90;;;;;;5094560;28;20526;-73
2021/12/31 20:40:30;;;;;;;13.73;10.73;;;9.50;99.90;;;;;;5094873;28;20188;-72
2021/12/31 20:42:56;;;;;;;22.03;18.07;;;9.40;99.90;;;;;;5094422;28;20253;-73
2021/12/31 20:45:24;;;;;;;11.37;10.13;;;9.40;99.90;;;;;;5093301;28;20589;-72
2021/12/31 20:47:51;;;;;;;10.77;9.03;;;9.40;99.90;;;;;;5094530;28;20241;-72
2021/12/31 20:50:19;;;;;;;10.00;8.97;;;9.40;99.90;;;;;;5094137;28;20579;-71
2021/12/31 20:52:46;;;;;;;10.77;8.40;;;9.40;99.90;;;;;;5094622;28;20193;-71
2021/12/31 20:55:13;;;;;;;10.83;9.67;;;9.40;99.90;;;;;;5096164;28;20196;-73
2021/12/31 20:57:40;;;;;;;11.97;9.13;;;9.40;99.90;;;;;;5096524;28;20218;-73
2021/12/31 21:00:09;;;;;;;9.93;8.87;;;9.40;99.90;;;;;;5095525;28;20229;-72
2021/12/31 21:02:37;;;;;;;13.00;9.03;;;9.40;99.90;;;;;;5093843;28;20200;-71
2021/12/31 21:05:04;;;;;;;13.27;9.07;;;9.40;99.90;;;;;;5093359;28;20211;-72
2021/12/31 21:07:31;;;;;;;9.70;8.70;;;9.50;99.90;;;;;;5093406;28;20197;-71
2021/12/31 21:09:58;;;;;;;10.33;8.80;;;9.60;99.90;;;;;;5093106;28;20197;-72
2021/12/31 21:12:24;;;;;;;10.00;8.70;;;9.70;99.90;;;;;;5093440;28;20192;-72
2021/12/31 21:14:51;;;;;;;12.27;9.57;;;9.70;99.90;;;;;;5092921;28;20253;-73
2021/12/31 21:17:18;;;;;;;11.50;8.77;;;9.80;99.90;;;;;;5093393;28;20189;-73
2021/12/31 21:19:46;;;;;;;9.80;8.50;;;9.80;99.90;;;;;;5093198;28;20199;-73
2021/12/31 21:22:12;;;;;;;10.30;8.50;;;9.90;99.90;;;;;;5092892;28;20250;-72
2021/12/31 21:24:39;;;;;;;9.83;8.70;;;9.90;99.90;;;;;;5093103;28;20220;-72
2021/12/31 21:27:06;;;;;;;11.80;10.10;;;9.90;99.90;;;;;;5093053;28;20197;-72
2021/12/31 21:29:32;;;;;;;25.40;18.53;;;9.90;99.90;;;;;;5092865;28;20242;-73
2021/12/31 21:31:59;;;;;;;20.57;17.57;;;10.00;99.90;;;;;;5092492;28;20188;-74
2021/12/31 21:34:26;;;;;;;11.00;9.23;;;10.00;99.90;;;;;;5093055;28;20192;-72
2021/12/31 21:36:54;;;;;;;10.57;9.17;;;10.00;99.90;;;;;;5092443;28;20189;-72
2021/12/31 21:39:21;;;;;;;12.00;9.53;;;10.00;99.90;;;;;;5077210;28;20188;-71
2021/12/31 21:41:48;;;;;;;10.93;9.13;;;10.10;99.90;;;;;;5092817;28;20517;-75
2021/12/31 21:44:15;;;;;;;11.17;9.20;;;10.10;99.90;;;;;;5092800;28;20212;-72
2021/12/31 21:46:42;;;;;;;15.10;12.80;;;10.10;99.90;;;;;;5093949;28;20192;-71
2021/12/31 21:49:09;;;;;;;17.13;11.70;;;10.10;99.90;;;;;;5092154;28;20287;-73
2021/12/31 21:51:36;;;;;;;10.80;8.30;;;10.10;99.90;;;;;;5092328;28;20590;-72
2021/12/31 21:54:05;;;;;;;11.20;9.20;;;10.10;99.90;;;;;;5092903;28;20196;-72
2021/12/31 21:56:31;;;;;;;11.23;8.80;;;10.20;99.90;;;;;;5092819;28;20196;-72
2021/12/31 21:58:58;;;;;;;11.27;9.10;;;10.20;99.90;;;;;;5092454;28;20188;-73
2021/12/31 22:01:25;;;;;;;9.93;8.93;;;10.20;99.90;;;;;;5093285;28;20216;-73
2021/12/31 22:03:51;;;;;;;11.07;9.23;;;10.20;99.90;;;;;;5092253;28;20192;-73
2021/12/31 22:06:18;;;;;;;10.47;9.23;;;10.20;99.90;;;;;;5093047;28;20192;-73
2021/12/31 22:08:45;;;;;;;12.17;10.60;;;10.20;99.90;;;;;;5092571;28;20191;-72
2021/12/31 22:11:13;;;;;;;13.43;11.47;;;10.10;99.90;;;;;;5091992;28;20196;-71
2021/12/31 22:13:40;;;;;;;11.13;9.13;;;10.20;99.90;;;;;;5092516;28;20188;-71
2021/12/31 22:16:06;;;;;;;11.33;9.03;;;10.20;99.90;;;;;;5093065;28;20192;-72
2021/12/31 22:18:33;;;;;;;16.67;14.97;;;10.20;99.90;;;;;;5090411;28;20188;-70
2021/12/31 22:21:00;;;;;;;11.17;8.87;;;10.20;99.90;;;;;;5089918;28;20189;-72
2021/12/31 22:23:26;;;;;;;12.90;10.70;;;10.20;99.90;;;;;;5089699;28;20196;-72
2021/12/31 22:25:53;;;;;;;18.47;12.73;;;10.20;99.90;;;;;;5089474;28;20235;-74
2021/12/31 22:28:21;;;;;;;13.30;9.80;;;10.20;99.90;;;;;;5074019;28;20253;-73
2021/12/31 22:30:48;;;;;;;12.43;10.37;;;10.20;99.90;;;;;;5089735;28;20218;-74
2021/12/31 22:33:14;;;;;;;17.40;15.00;;;10.10;99.90;;;;;;5089308;28;20196;-74
2021/12/31 22:35:41;;;;;;;10.37;9.10;;;10.10;99.90;;;;;;5089515;28;20196;-72
2021/12/31 22:38:08;;;;;;;14.00;12.57;;;10.20;99.90;;;;;;5089464;28;20203;-73
2021/12/31 22:40:34;;;;;;;13.50;11.03;;;10.10;99.90;;;;;;5089619;28;20193;-72
2021/12/31 22:43:01;;;;;;;14.50;10.80;;;10.10;99.90;;;;;;5089794;28;20196;-71
2021/12/31 22:45:29;;;;;;;16.53;10.97;;;10.10;99.90;;;;;;5090317;28;20219;-71
2021/12/31 22:47:56;;;;;;;11.57;10.00;;;10.10;99.90;;;;;;5089890;28;20189;-72
2021/12/31 22:50:22;;;;;;;15.40;13.03;;;10.10;99.90;;;;;;5090453;28;20192;-74
2021/12/31 22:52:50;;;;;;;14.43;11.33;;;10.10;99.90;;;;;;5092074;28;20648;-73